Time;durP1;ratioP1;P1;durP2;ratioP2;P2;SDS_P1;SDS_P2;PMS_P1;PMS_P2;Temp;Humidity;BMP_temperature;BMP_pressure;BME280_temperature;BME280_humidity;BME280_pressure;Samples;Min_cycle;Max_cycle;Signal;HPM_P1;HPM_P2
2023/07/16 00:01:57;;;;;;;12.43;7.57;;;24.20;99.90;;;;;;5094550;28;20478;-71
2023/07/16 00:04:22;;;;;;;10.60;6.88;;;24.20;99.90;;;;;;5101751;28;20024;-71
2023/07/16 00:06:48;;;;;;;11.00;7.82;;;24.10;99.90;;;;;;5091918;28;20024;-71
2023/07/16 00:09:14;;;;;;;14.77;7.38;;;24.20;99.90;;;;;;5096307;27;20034;-71
2023/07/16 00:11:40;;;;;;;12.85;6.75;;;24.00;99.90;;;;;;5092325;28;20539;-71
2023/07/16 00:14:05;;;;;;;15.32;7.13;;;24.10;99.90;;;;;;5103369;28;20389;-71
2023/07/16 00:16:31;;;;;;;12.02;7.95;;;24.00;99.90;;;;;;5091755;28;20107;-71
2023/07/16 00:18:57;;;;;;;9.85;7.35;;;24.00;99.90;;;;;;5094780;28;20740;-71
2023/07/16 00:21:23;;;;;;;11.82;7.10;;;23.90;99.90;;;;;;5100856;28;20031;-71
2023/07/16 00:23:49;;;;;;;11.25;7.22;;;23.90;99.90;;;;;;5099674;28;20117;-71
2023/07/16 00:26:15;;;;;;;13.55;6.88;;;23.90;99.90;;;;;;5095360;28;20032;-71
2023/07/16 00:28:40;;;;;;;13.07;7.65;;;23.80;99.90;;;;;;5093780;28;20024;-71
2023/07/16 00:31:06;;;;;;;11.52;7.70;;;23.70;99.90;;;;;;5099599;28;20081;-71
2023/07/16 00:33:32;;;;;;;13.88;7.85;;;23.70;99.90;;;;;;5096740;28;20493;-71
2023/07/16 00:35:57;;;;;;;9.55;7.13;;;23.70;99.90;;;;;;5099367;28;20362;-71
2023/07/16 00:38:23;;;;;;;9.43;6.35;;;23.60;99.90;;;;;;5092229;28;20031;-71
2023/07/16 00:40:49;;;;;;;11.50;7.38;;;23.50;99.90;;;;;;5098654;28;20019;-71
2023/07/16 00:43:15;;;;;;;12.32;7.28;;;23.50;99.90;;;;;;5091216;28;20545;-71
2023/07/16 00:45:41;;;;;;;15.55;7.63;;;23.50;99.90;;;;;;5093424;28;20036;-71
2023/07/16 00:48:08;;;;;;;11.10;7.40;;;23.50;99.90;;;;;;5095730;28;20031;-71
2023/07/16 00:50:36;;;;;;;11.60;7.43;;;23.50;99.90;;;;;;5098643;28;20108;-71
2023/07/16 00:53:02;;;;;;;13.13;7.75;;;23.50;99.90;;;;;;5093294;28;20051;-71
2023/07/16 00:55:29;;;;;;;13.82;8.40;;;23.30;99.90;;;;;;5094235;27;20067;-71
2023/07/16 00:58:05;;;;;;;15.20;7.88;;;23.30;99.90;;;;;;5103724;28;20051;-71
2023/07/16 01:00:31;;;;;;;12.73;7.88;;;23.30;99.90;;;;;;5099762;28;20032;-71
2023/07/16 01:02:57;;;;;;;12.77;8.52;;;23.40;99.90;;;;;;5103144;28;20039;-71
2023/07/16 01:05:27;;;;;;;10.52;7.65;;;23.50;99.90;;;;;;5092943;28;20032;-71
2023/07/16 01:08:02;;;;;;;13.63;8.52;;;23.60;99.90;;;;;;5095417;28;20059;-71
2023/07/16 01:10:28;;;;;;;12.45;7.63;;;23.50;99.90;;;;;;5092923;28;20505;-71
2023/07/16 01:12:56;;;;;;;11.23;7.88;;;23.50;99.90;;;;;;5095551;28;20521;-71
2023/07/16 01:15:22;;;;;;;9.52;6.88;;;23.40;99.90;;;;;;5098490;28;20381;-71
2023/07/16 01:17:48;;;;;;;12.50;7.68;;;23.30;99.90;;;;;;5102292;28;20055;-71
2023/07/16 01:20:14;;;;;;;9.88;7.72;;;23.20;99.90;;;;;;5099078;28;20102;-71
2023/07/16 01:22:58;;;;;;;11.68;7.70;;;23.10;99.90;;;;;;5096524;28;20157;-71
2023/07/16 01:25:23;;;;;;;;;;;23.10;99.90;;;;;;5096251;28;20034;-71
2023/07/16 01:28:11;;;;;;;17.45;8.35;;;23.10;99.90;;;;;;5091859;28;19999;-71
2023/07/16 01:30:41;;;;;;;14.13;7.45;;;23.10;99.90;;;;;;5097110;28;20035;-71
2023/07/16 01:33:10;;;;;;;11.95;7.57;;;23.20;99.90;;;;;;5102031;28;20119;-71
2023/07/16 01:35:36;;;;;;;15.00;7.55;;;23.20;99.90;;;;;;5101564;28;20062;-71
2023/07/16 01:38:02;;;;;;;15.07;8.50;;;23.30;99.90;;;;;;5098717;28;20035;-70
2023/07/16 01:40:29;;;;;;;12.57;7.95;;;23.30;99.90;;;;;;5100468;28;20043;-71
2023/07/16 01:42:55;;;;;;;14.05;7.50;;;23.40;99.90;;;;;;5096362;28;20035;-71
2023/07/16 01:45:21;;;;;;;12.15;7.80;;;23.30;99.90;;;;;;5097846;28;20024;-71
2023/07/16 01:48:23;;;;;;;16.23;8.38;;;23.30;99.90;;;;;;5098530;28;20113;-71
2023/07/16 01:50:49;;;;;;;11.13;8.00;;;23.20;99.90;;;;;;5097382;28;20052;-71
2023/07/16 01:53:14;;;;;;;15.40;7.85;;;23.20;99.90;;;;;;5098339;28;20105;-71
2023/07/16 01:55:40;;;;;;;16.95;7.38;;;23.20;99.90;;;;;;5099385;28;20066;-71
2023/07/16 01:58:06;;;;;;;13.02;8.02;;;23.20;99.90;;;;;;5101556;28;20132;-71
2023/07/16 02:00:31;;;;;;;10.45;7.80;;;23.10;99.90;;;;;;5098191;28;20036;-71
2023/07/16 02:02:57;;;;;;;11.40;8.15;;;23.10;99.90;;;;;;5098258;28;20036;-71
2023/07/16 02:05:23;;;;;;;18.00;8.50;;;23.10;99.90;;;;;;5098980;28;20038;-71
2023/07/16 02:07:48;;;;;;;11.32;7.65;;;23.10;99.90;;;;;;5097621;28;20077;-71
2023/07/16 02:10:14;;;;;;;10.48;7.10;;;23.20;99.90;;;;;;5097353;28;20489;-71
2023/07/16 02:12:40;;;;;;;14.00;7.43;;;23.10;99.90;;;;;;5100244;28;20059;-71
2023/07/16 02:15:06;;;;;;;14.00;7.80;;;23.00;99.90;;;;;;5097091;28;20485;-71
2023/07/16 02:17:31;;;;;;;12.10;8.52;;;23.10;99.90;;;;;;5097054;28;20024;-71
2023/07/16 02:19:57;;;;;;;17.02;9.25;;;23.10;99.90;;;;;;5095441;28;20047;-71
2023/07/16 02:22:23;;;;;;;12.57;8.02;;;23.10;99.90;;;;;;5102947;28;20032;-71
2023/07/16 02:24:48;;;;;;;11.23;8.45;;;23.00;99.90;;;;;;5099767;28;20032;-71
2023/07/16 02:27:14;;;;;;;10.18;7.85;;;23.00;99.90;;;;;;5097673;28;20055;-71
2023/07/16 02:29:39;;;;;;;11.57;7.70;;;22.90;99.90;;;;;;5099358;28;20686;-71
2023/07/16 02:32:06;;;;;;;9.75;7.80;;;22.90;99.90;;;;;;5101963;28;20072;-71
2023/07/16 02:34:31;;;;;;;10.63;7.15;;;23.00;99.90;;;;;;5103170;28;20020;-71
2023/07/16 02:36:57;;;;;;;12.75;8.02;;;23.00;99.90;;;;;;5095059;28;20501;-71
2023/07/16 02:39:23;;;;;;;11.63;8.20;;;22.90;99.90;;;;;;5094419;27;20115;-71
2023/07/16 02:41:49;;;;;;;10.30;7.43;;;22.80;99.90;;;;;;5099422;28;20031;-71
2023/07/16 02:44:14;;;;;;;15.70;8.48;;;22.80;99.90;;;;;;5096099;28;20028;-71
2023/07/16 02:46:41;;;;;;;11.27;8.23;;;22.80;99.90;;;;;;5104085;27;20023;-71
2023/07/16 02:49:07;;;;;;;14.43;8.68;;;22.90;99.90;;;;;;5101666;28;20027;-71
2023/07/16 02:51:32;;;;;;;9.48;7.03;;;22.90;99.90;;;;;;5097566;28;20036;-71
2023/07/16 02:53:58;;;;;;;11.80;7.97;;;22.90;99.90;;;;;;5098280;28;20027;-71
2023/07/16 02:56:24;;;;;;;10.68;8.15;;;22.90;99.90;;;;;;5098201;28;20898;-71
2023/07/16 02:58:49;;;;;;;13.15;8.35;;;22.80;99.90;;;;;;5100058;28;20043;-70
2023/07/16 03:01:15;;;;;;;12.20;7.90;;;22.90;99.90;;;;;;5099921;28;21078;-71
2023/07/16 03:03:41;;;;;;;11.80;8.18;;;22.70;99.90;;;;;;5093996;28;20028;-71
2023/07/16 03:06:07;;;;;;;13.65;7.40;;;22.80;99.90;;;;;;5098091;28;21018;-71
2023/07/16 03:08:34;;;;;;;15.27;8.75;;;22.80;99.90;;;;;;5097543;28;20562;-71
2023/07/16 03:10:59;;;;;;;12.10;7.90;;;22.80;99.90;;;;;;5093956;28;20036;-71
2023/07/16 03:13:25;;;;;;;17.10;8.70;;;22.80;99.90;;;;;;5094859;28;20039;-71
2023/07/16 03:15:51;;;;;;;12.50;7.43;;;22.80;99.90;;;;;;5090713;28;20035;-71
2023/07/16 03:18:19;;;;;;;15.43;8.25;;;22.70;99.90;;;;;;5088370;28;20671;-71
2023/07/16 03:20:44;;;;;;;11.82;7.97;;;22.60;99.90;;;;;;5086615;28;20028;-70
2023/07/16 03:23:10;;;;;;;11.70;8.45;;;22.90;99.90;;;;;;5095035;28;20088;-71
2023/07/16 03:25:36;;;;;;;12.77;7.22;;;22.90;99.90;;;;;;5092032;28;20032;-71
2023/07/16 03:28:02;;;;;;;17.70;7.38;;;22.70;99.90;;;;;;5089720;28;20043;-71
2023/07/16 03:30:28;;;;;;;13.60;8.35;;;22.70;99.90;;;;;;5091316;28;20020;-71
2023/07/16 03:32:53;;;;;;;10.48;7.65;;;22.60;99.90;;;;;;5092711;28;20547;-71
2023/07/16 03:35:19;;;;;;;9.77;8.48;;;22.50;99.90;;;;;;5092312;28;20081;-70
2023/07/16 03:37:45;;;;;;;14.77;7.72;;;22.70;99.90;;;;;;5088933;28;20081;-71
2023/07/16 03:40:15;;;;;;;15.20;8.70;;;22.80;99.90;;;;;;5090755;28;20670;-71
2023/07/16 03:42:41;;;;;;;11.85;7.45;;;22.70;99.90;;;;;;5089456;28;20487;-71
2023/07/16 03:45:08;;;;;;;12.50;7.57;;;22.70;99.90;;;;;;5088649;28;20161;-72
2023/07/16 03:47:33;;;;;;;10.07;7.53;;;22.50;99.90;;;;;;5092908;28;20107;-71
2023/07/16 03:49:59;;;;;;;14.55;7.97;;;22.50;99.90;;;;;;5097932;28;20111;-71
2023/07/16 03:52:26;;;;;;;12.88;8.52;;;22.70;99.90;;;;;;5095661;28;20024;-71
2023/07/16 03:54:52;;;;;;;16.92;8.77;;;22.70;99.90;;;;;;5092463;28;20024;-70
2023/07/16 03:57:17;;;;;;;15.70;8.60;;;22.70;99.90;;;;;;5091342;28;20028;-71
2023/07/16 03:59:43;;;;;;;15.55;8.27;;;22.70;99.90;;;;;;5090097;28;20520;-71
2023/07/16 04:02:09;;;;;;;17.52;8.27;;;22.70;99.90;;;;;;5087681;28;20490;-71
2023/07/16 04:04:35;;;;;;;11.75;7.78;;;22.70;99.90;;;;;;5092999;28;20024;-71
2023/07/16 04:07:00;;;;;;;15.48;8.25;;;22.80;99.90;;;;;;5093048;28;20039;-71
2023/07/16 04:09:26;;;;;;;14.70;8.35;;;22.80;99.90;;;;;;5087108;28;20466;-71
2023/07/16 04:11:51;;;;;;;14.63;8.30;;;22.90;99.90;;;;;;5087059;28;20027;-71
2023/07/16 04:14:17;;;;;;;15.73;7.95;;;22.80;99.90;;;;;;5093437;28;20587;-71
2023/07/16 04:16:43;;;;;;;13.13;7.75;;;22.80;99.90;;;;;;5089784;28;20035;-71
2023/07/16 04:19:09;;;;;;;12.52;7.45;;;22.90;99.90;;;;;;5089229;28;20633;-71
2023/07/16 04:21:35;;;;;;;11.75;8.05;;;22.90;99.90;;;;;;5088629;28;20123;-71
2023/07/16 04:24:02;;;;;;;12.07;8.02;;;22.90;99.90;;;;;;5094470;28;20050;-71
2023/07/16 04:26:28;;;;;;;11.05;7.75;;;22.70;99.90;;;;;;5085240;28;20031;-71
2023/07/16 04:28:54;;;;;;;10.75;8.00;;;22.60;99.90;;;;;;5087364;28;20140;-71
2023/07/16 04:31:20;;;;;;;9.57;7.90;;;22.70;99.90;;;;;;5082117;28;20036;-71
2023/07/16 04:33:45;;;;;;;13.23;8.25;;;22.60;99.90;;;;;;5086997;28;20063;-70
2023/07/16 04:36:11;;;;;;;13.00;7.35;;;22.60;99.90;;;;;;5083021;28;20035;-71
2023/07/16 04:38:37;;;;;;;12.57;8.23;;;22.70;99.90;;;;;;5090440;28;20032;-71
2023/07/16 04:41:02;;;;;;;11.85;9.07;;;22.60;99.90;;;;;;5084837;28;20036;-71
2023/07/16 04:43:28;;;;;;;10.48;8.80;;;22.60;99.90;;;;;;5089812;28;20070;-71
2023/07/16 04:45:54;;;;;;;14.23;9.02;;;22.50;99.90;;;;;;5090446;28;20500;-71
2023/07/16 04:48:19;;;;;;;12.63;8.88;;;22.50;99.90;;;;;;5089169;28;20032;-71
2023/07/16 04:50:45;;;;;;;10.35;8.10;;;22.70;99.90;;;;;;5090110;28;20410;-71
2023/07/16 04:53:11;;;;;;;12.45;8.85;;;22.70;99.90;;;;;;5091201;28;20377;-71
2023/07/16 04:55:39;;;;;;;11.73;8.65;;;22.80;99.90;;;;;;5089354;28;20027;-71
2023/07/16 04:58:04;;;;;;;12.30;7.95;;;22.80;99.90;;;;;;5091138;28;20075;-71
2023/07/16 05:00:32;;;;;;;13.68;8.50;;;22.80;99.90;;;;;;5087698;28;20067;-71
2023/07/16 05:02:58;;;;;;;17.20;8.40;;;22.70;99.90;;;;;;5088700;28;20588;-71
2023/07/16 05:05:24;;;;;;;11.90;8.07;;;22.60;99.90;;;;;;5090996;28;20024;-71
2023/07/16 05:07:49;;;;;;;13.02;9.60;;;22.40;99.90;;;;;;5083696;28;20047;-71
2023/07/16 05:10:15;;;;;;;10.30;8.38;;;22.40;99.90;;;;;;5095274;28;20071;-71
2023/07/16 05:12:41;;;;;;;14.88;7.93;;;22.40;99.90;;;;;;5088622;28;20143;-71
2023/07/16 05:15:07;;;;;;;12.60;7.88;;;22.40;99.90;;;;;;5088237;28;20073;-71
2023/07/16 05:17:33;;;;;;;13.00;8.15;;;22.40;99.90;;;;;;5090281;28;20085;-71
2023/07/16 05:19:58;;;;;;;12.30;8.38;;;22.40;99.90;;;;;;5094379;28;20052;-71
2023/07/16 05:22:24;;;;;;;14.05;8.50;;;22.40;99.90;;;;;;5089442;28;20035;-71
2023/07/16 05:24:50;;;;;;;12.52;9.10;;;22.40;99.90;;;;;;5088840;28;20032;-71
2023/07/16 05:27:16;;;;;;;11.57;8.15;;;22.50;99.90;;;;;;5085748;28;20105;-71
2023/07/16 05:29:41;;;;;;;11.05;8.13;;;22.50;99.90;;;;;;5089286;28;20059;-71
2023/07/16 05:32:07;;;;;;;13.38;8.68;;;22.50;99.90;;;;;;5087758;28;20505;-71
2023/07/16 05:34:33;;;;;;;13.05;7.85;;;22.50;99.90;;;;;;5087487;28;20032;-71
2023/07/16 05:36:59;;;;;;;11.18;8.65;;;22.50;99.90;;;;;;5092502;28;20031;-71
2023/07/16 05:39:25;;;;;;;11.63;8.27;;;22.50;99.90;;;;;;5091818;28;20047;-71
2023/07/16 05:41:50;;;;;;;13.43;7.90;;;22.60;99.90;;;;;;5089458;28;20027;-71
2023/07/16 05:44:16;;;;;;;12.95;8.18;;;22.60;99.90;;;;;;5097013;28;20028;-71
2023/07/16 05:46:42;;;;;;;13.52;8.82;;;22.60;99.90;;;;;;5093838;28;20024;-71
2023/07/16 05:49:07;;;;;;;10.73;8.45;;;22.60;99.90;;;;;;5093718;28;20020;-71
2023/07/16 05:51:33;;;;;;;15.25;9.52;;;22.70;99.90;;;;;;5091197;28;20120;-72
2023/07/16 05:53:59;;;;;;;11.10;8.65;;;22.80;99.90;;;;;;5094763;28;20074;-72
2023/07/16 05:56:24;;;;;;;13.40;8.57;;;22.90;99.90;;;;;;5091684;28;20550;-71
2023/07/16 05:58:50;;;;;;;14.60;9.82;;;22.90;99.90;;;;;;5086189;28;22010;-71
2023/07/16 06:01:16;;;;;;;13.43;9.52;;;23.00;99.90;;;;;;5093875;28;20077;-71
2023/07/16 06:03:41;;;;;;;12.10;9.45;;;23.00;99.90;;;;;;5095289;28;20080;-72
2023/07/16 06:06:09;;;;;;;12.05;9.23;;;23.00;99.90;;;;;;5092671;28;20039;-71
2023/07/16 06:08:35;;;;;;;12.98;9.25;;;23.10;99.90;;;;;;5096919;28;22152;-71
2023/07/16 06:11:00;;;;;;;12.05;7.97;;;23.20;99.90;;;;;;5087470;28;20028;-71
2023/07/16 06:13:26;;;;;;;15.18;9.05;;;23.20;99.90;;;;;;5089377;28;20036;-72
2023/07/16 06:15:52;;;;;;;15.07;10.00;;;23.20;99.90;;;;;;5085795;28;20031;-71
2023/07/16 06:18:17;;;;;;;13.68;8.77;;;23.20;99.90;;;;;;5092897;28;20032;-71
2023/07/16 06:20:44;;;;;;;13.93;8.43;;;23.30;99.90;;;;;;5097303;28;20431;-72
2023/07/16 06:23:11;;;;;;;14.75;8.85;;;23.40;99.90;;;;;;5102339;28;20034;-71
2023/07/16 06:25:36;;;;;;;13.55;9.20;;;23.40;99.90;;;;;;5098262;28;20077;-71
2023/07/16 06:28:03;;;;;;;15.20;9.85;;;23.50;99.90;;;;;;5098705;28;20415;-71
2023/07/16 06:30:30;;;;;;;12.63;8.43;;;23.60;99.90;;;;;;5092093;28;20112;-72
2023/07/16 06:32:56;;;;;;;12.45;8.80;;;23.60;99.90;;;;;;5095008;28;20027;-71
2023/07/16 06:35:21;;;;;;;15.15;8.98;;;23.70;99.90;;;;;;5094319;28;20028;-71
2023/07/16 06:37:47;;;;;;;16.45;9.27;;;23.60;99.90;;;;;;5095394;28;20027;-71
2023/07/16 06:40:13;;;;;;;13.05;9.77;;;23.70;99.90;;;;;;5104399;28;20482;-71
2023/07/16 06:42:38;;;;;;;12.40;9.00;;;23.70;99.90;;;;;;5099366;27;20028;-71
2023/07/16 06:45:05;;;;;;;13.98;9.15;;;23.70;99.90;;;;;;5095280;28;20493;-71
2023/07/16 06:47:30;;;;;;;10.75;8.88;;;23.70;99.90;;;;;;5090339;28;20028;-71
2023/07/16 06:49:56;;;;;;;17.48;9.75;;;23.80;99.90;;;;;;5097292;28;20169;-71
2023/07/16 06:52:27;;;;;;;12.13;9.48;;;23.90;99.90;;;;;;5102088;28;20698;-71
2023/07/16 06:54:56;;;;;;;13.45;8.52;;;23.90;99.90;;;;;;5095112;28;20110;-71
2023/07/16 06:57:25;;;;;;;15.02;8.50;;;24.10;99.90;;;;;;5094782;28;20035;-71
2023/07/16 06:59:51;;;;;;;12.60;8.45;;;24.30;99.90;;;;;;5098484;28;20031;-71
2023/07/16 07:02:17;;;;;;;14.93;8.45;;;24.40;99.90;;;;;;5098255;28;20480;-71
2023/07/16 07:04:43;;;;;;;10.77;8.98;;;24.50;99.90;;;;;;5099847;28;20027;-69
2023/07/16 07:07:09;;;;;;;12.25;8.82;;;24.70;99.90;;;;;;5093217;28;20035;-71
2023/07/16 07:09:34;;;;;;;11.18;8.57;;;24.80;99.90;;;;;;5093635;28;20379;-71
2023/07/16 07:12:00;;;;;;;14.73;8.82;;;25.00;99.90;;;;;;5096406;28;20066;-70
2023/07/16 07:14:26;;;;;;;11.85;8.45;;;25.20;99.90;;;;;;5095195;28;20032;-70
2023/07/16 07:16:52;;;;;;;16.98;9.02;;;25.40;99.90;;;;;;5091101;28;20044;-70
2023/07/16 07:19:18;;;;;;;10.68;7.38;;;25.70;99.90;;;;;;5092024;28;20081;-71
2023/07/16 07:21:43;;;;;;;15.35;8.95;;;25.90;99.90;;;;;;5088515;28;20059;-70
2023/07/16 07:24:09;;;;;;;15.95;8.70;;;26.10;99.90;;;;;;5089230;28;20107;-70
2023/07/16 07:26:35;;;;;;;11.75;8.20;;;26.20;99.90;;;;;;5091688;28;20466;-70
2023/07/16 07:29:00;;;;;;;11.45;8.35;;;26.50;99.90;;;;;;5087987;28;20046;-70
2023/07/16 07:31:26;;;;;;;12.40;7.97;;;26.70;99.90;;;;;;5097560;28;20031;-70
2023/07/16 07:33:53;;;;;;;12.70;7.90;;;27.30;99.90;;;;;;5087317;28;20032;-70
2023/07/16 07:36:19;;;;;;;12.88;7.45;;;28.20;99.90;;;;;;5093464;28;20382;-71
2023/07/16 07:38:45;;;;;;;13.60;8.65;;;29.10;99.90;;;;;;5091735;28;20131;-70
2023/07/16 07:41:10;;;;;;;12.45;7.97;;;29.90;99.90;;;;;;5096540;28;20027;-70
2023/07/16 07:43:36;;;;;;;15.93;7.57;;;30.80;99.20;;;;;;5086244;28;20043;-70
2023/07/16 07:46:02;;;;;;;12.38;8.00;;;31.90;97.80;;;;;;5093089;28;20112;-70
2023/07/16 07:48:28;;;;;;;12.15;7.45;;;32.20;97.30;;;;;;5098592;28;20055;-71
2023/07/16 07:50:53;;;;;;;14.90;8.00;;;32.20;97.20;;;;;;5091979;28;20066;-71
2023/07/16 07:53:19;;;;;;;11.20;7.88;;;32.10;96.60;;;;;;5095904;28;20028;-71
2023/07/16 07:55:45;;;;;;;11.63;7.30;;;32.40;96.30;;;;;;5091529;28;20035;-70
2023/07/16 07:58:12;;;;;;;12.00;7.07;;;32.30;96.50;;;;;;5093696;28;20056;-70
2023/07/16 08:00:38;;;;;;;10.32;7.38;;;32.50;96.20;;;;;;5098292;28;20055;-70
2023/07/16 08:03:04;;;;;;;12.05;7.07;;;31.90;96.60;;;;;;5094517;28;20043;-70
2023/07/16 08:05:29;;;;;;;11.52;8.25;;;31.80;96.50;;;;;;5092539;28;21870;-70
2023/07/16 08:07:55;;;;;;;12.48;7.38;;;31.60;97.50;;;;;;5089991;28;20092;-71
2023/07/16 08:10:21;;;;;;;13.85;8.20;;;31.10;98.00;;;;;;5094433;28;20036;-70
2023/07/16 08:12:47;;;;;;;11.88;8.13;;;30.50;98.70;;;;;;5088420;28;20126;-70
2023/07/16 08:15:16;;;;;;;14.05;8.02;;;30.10;98.40;;;;;;5089886;28;20114;-70
2023/07/16 08:17:42;;;;;;;12.57;8.10;;;28.80;99.90;;;;;;5100064;28;20023;-70
2023/07/16 08:20:09;;;;;;;11.40;8.38;;;29.10;99.90;;;;;;5098523;28;20071;-70
2023/07/16 08:22:35;;;;;;;13.23;8.05;;;28.90;99.90;;;;;;5099216;28;20103;-70
2023/07/16 08:25:01;;;;;;;11.80;8.05;;;28.80;99.90;;;;;;5105201;28;20110;-70
2023/07/16 08:27:26;;;;;;;11.07;7.93;;;29.20;99.90;;;;;;5096764;28;20027;-70
2023/07/16 08:29:52;;;;;;;14.90;8.65;;;29.30;99.90;;;;;;5088813;28;20035;-70
2023/07/16 08:32:19;;;;;;;9.20;7.18;;;28.60;99.90;;;;;;5088332;28;20040;-70
2023/07/16 08:34:44;;;;;;;10.93;8.07;;;28.50;99.90;;;;;;5085907;28;20413;-70
2023/07/16 08:37:10;;;;;;;10.23;7.45;;;28.30;99.90;;;;;;5104700;28;20028;-70
2023/07/16 08:39:36;;;;;;;10.90;7.88;;;28.70;99.90;;;;;;5093259;28;20512;-70
2023/07/16 08:42:02;;;;;;;11.35;7.72;;;28.90;99.90;;;;;;5085451;28;20034;-71
2023/07/16 08:44:29;;;;;;;10.95;7.57;;;28.90;99.90;;;;;;5088465;28;20088;-71
2023/07/16 08:46:54;;;;;;;13.43;8.45;;;28.90;99.90;;;;;;5095263;28;20020;-70
2023/07/16 08:49:22;;;;;;;10.32;7.85;;;29.20;99.90;;;;;;5101124;28;20027;-71
2023/07/16 08:51:48;;;;;;;11.43;7.47;;;28.80;99.90;;;;;;5086926;28;20114;-71
2023/07/16 08:54:19;;;;;;;13.00;8.60;;;28.90;99.90;;;;;;5108251;28;20063;-70
2023/07/16 08:56:47;;;;;;;10.48;7.65;;;29.10;99.90;;;;;;5108542;28;20020;-70
2023/07/16 08:59:15;;;;;;;11.27;7.50;;;29.00;99.90;;;;;;5105844;28;20060;-70
2023/07/16 09:01:41;;;;;;;13.27;8.48;;;29.30;99.50;;;;;;5097010;28;20047;-70
2023/07/16 09:04:08;;;;;;;12.32;6.95;;;29.40;99.10;;;;;;5086937;28;20042;-70
2023/07/16 09:06:33;;;;;;;12.52;7.82;;;29.40;99.40;;;;;;5101811;28;20027;-70
2023/07/16 09:08:59;;;;;;;14.73;7.82;;;29.60;99.70;;;;;;5101320;28;20675;-70
2023/07/16 09:11:25;;;;;;;12.38;8.88;;;29.60;99.80;;;;;;5105496;28;20031;-70
2023/07/16 09:13:50;;;;;;;12.52;7.13;;;29.50;99.60;;;;;;5087393;28;20036;-70
2023/07/16 09:16:20;;;;;;;11.70;7.25;;;29.80;99.90;;;;;;5091992;28;20023;-71
2023/07/16 09:18:46;;;;;;;10.20;6.95;;;29.80;99.50;;;;;;5100940;28;20401;-71
2023/07/16 09:21:13;;;;;;;10.52;7.28;;;30.00;99.90;;;;;;5088602;28;20039;-71
2023/07/16 09:23:38;;;;;;;9.30;6.80;;;30.00;99.10;;;;;;5089155;28;20024;-71
2023/07/16 09:26:04;;;;;;;17.90;7.80;;;30.00;99.30;;;;;;5096152;28;20035;-71
2023/07/16 09:28:34;;;;;;;11.93;6.78;;;30.10;99.10;;;;;;5095272;28;20031;-70
2023/07/16 09:31:07;;;;;;;10.70;7.38;;;30.20;99.10;;;;;;5087106;28;20035;-71
2023/07/16 09:33:33;;;;;;;9.10;7.25;;;30.30;98.80;;;;;;5084049;28;20035;-71
2023/07/16 09:35:59;;;;;;;50.50;11.07;;;30.20;99.30;;;;;;5089572;28;20109;-71
2023/07/16 09:38:27;;;;;;;68.90;12.07;;;30.20;98.80;;;;;;5092038;28;20582;-71
2023/07/16 09:40:55;;;;;;;17.45;8.13;;;30.30;99.60;;;;;;5092831;28;20454;-71
2023/07/16 09:43:21;;;;;;;20.27;7.28;;;30.50;99.10;;;;;;5095081;28;20097;-71
2023/07/16 09:45:47;;;;;;;11.52;6.93;;;30.40;99.70;;;;;;5085047;28;20019;-71
2023/07/16 09:48:14;;;;;;;12.88;8.70;;;30.30;99.70;;;;;;5092676;28;20041;-71
2023/07/16 09:50:51;;;;;;;14.75;8.30;;;30.50;99.30;;;;;;5089407;28;20028;-71
2023/07/16 09:53:19;;;;;;;12.55;7.25;;;30.50;99.90;;;;;;5092598;28;20027;-71
2023/07/16 09:55:45;;;;;;;20.73;7.70;;;30.60;99.10;;;;;;5091320;28;20084;-71
2023/07/16 09:58:12;;;;;;;16.85;7.80;;;30.90;99.40;;;;;;5092853;28;20047;-71
2023/07/16 10:00:40;;;;;;;8.90;7.35;;;30.90;99.40;;;;;;5091135;28;20048;-71
2023/07/16 10:03:07;;;;;;;12.02;7.63;;;31.00;99.20;;;;;;5087447;28;20032;-71
2023/07/16 10:05:37;;;;;;;15.13;6.75;;;31.10;98.40;;;;;;5095020;28;20111;-71
2023/07/16 10:08:03;;;;;;;13.00;6.55;;;31.20;98.60;;;;;;5089251;28;20066;-71
2023/07/16 10:10:43;;;;;;;14.10;6.82;;;31.30;98.70;;;;;;5091264;28;20035;-71
2023/07/16 10:13:12;;;;;;;11.70;7.35;;;31.40;99.10;;;;;;5090219;28;20039;-71
2023/07/16 10:15:38;;;;;;;19.05;7.57;;;31.30;99.90;;;;;;5096532;28;20028;-71
2023/07/16 10:18:04;;;;;;;17.95;7.93;;;31.40;98.90;;;;;;5095889;28;20032;-71
2023/07/16 10:20:42;;;;;;;10.48;6.50;;;31.30;99.80;;;;;;5094210;28;20059;-71
2023/07/16 10:23:15;;;;;;;8.80;6.05;;;31.30;99.30;;;;;;5088021;28;20031;-71
2023/07/16 10:25:57;;;;;;;;;;;31.30;98.70;;;;;;5085349;28;20432;-71
2023/07/16 10:28:23;;;;;;;17.08;6.55;;;31.60;98.60;;;;;;5088626;28;19915;-71
2023/07/16 10:30:50;;;;;;;11.85;6.75;;;31.90;98.50;;;;;;5088226;27;20420;-71
2023/07/16 10:33:15;;;;;;;10.02;6.32;;;31.50;98.60;;;;;;5093944;28;20028;-71
2023/07/16 10:35:42;;;;;;;9.73;6.43;;;31.50;97.90;;;;;;5088557;27;20050;-71
2023/07/16 10:38:08;;;;;;;9.48;6.28;;;31.50;98.60;;;;;;5096000;28;20068;-71
2023/07/16 10:40:43;;;;;;;9.40;6.20;;;32.00;98.10;;;;;;5087721;28;20040;-71
2023/07/16 10:43:09;;;;;;;10.98;6.05;;;32.20;97.40;;;;;;5088596;27;20102;-71
2023/07/16 10:45:35;;;;;;;8.52;5.55;;;31.70;97.10;;;;;;5087958;28;20024;-71
2023/07/16 10:48:00;;;;;;;10.48;6.32;;;31.70;97.70;;;;;;5090157;28;20074;-71
2023/07/16 10:50:26;;;;;;;11.40;4.78;;;31.30;97.70;;;;;;5087748;28;20024;-71
2023/07/16 10:52:56;;;;;;;9.65;6.07;;;31.50;97.80;;;;;;5090157;28;20027;-71
2023/07/16 10:55:23;;;;;;;15.05;6.45;;;31.60;98.20;;;;;;5090678;28;20126;-71
2023/07/16 10:57:49;;;;;;;9.20;4.97;;;31.90;97.80;;;;;;5088329;28;20127;-71
2023/07/16 11:00:16;;;;;;;9.63;5.63;;;32.20;98.00;;;;;;5096722;28;20040;-71
2023/07/16 11:02:43;;;;;;;9.60;5.30;;;32.00;96.50;;;;;;5101697;28;20043;-71
2023/07/16 11:05:13;;;;;;;9.20;5.13;;;32.40;97.90;;;;;;5090046;28;20024;-71
2023/07/16 11:07:44;;;;;;;8.68;5.20;;;32.60;95.80;;;;;;5088032;28;20035;-71
2023/07/16 11:10:10;;;;;;;7.72;4.43;;;32.70;96.90;;;;;;5093004;28;20230;-71
2023/07/16 11:12:36;;;;;;;9.68;5.70;;;32.80;95.90;;;;;;5089290;28;20531;-71
2023/07/16 11:15:01;;;;;;;9.18;5.20;;;32.90;97.30;;;;;;5092451;28;20044;-71
2023/07/16 11:17:27;;;;;;;7.22;4.88;;;32.50;95.90;;;;;;5088600;28;20091;-70
2023/07/16 11:19:54;;;;;;;7.20;4.75;;;32.40;96.00;;;;;;5090574;28;20036;-71
2023/07/16 11:22:27;;;;;;;11.30;4.20;;;32.40;95.40;;;;;;5085077;28;20024;-71
2023/07/16 11:24:53;;;;;;;6.85;4.68;;;32.40;95.50;;;;;;5092284;28;20023;-71
2023/07/16 11:27:27;;;;;;;8.20;5.32;;;32.50;95.40;;;;;;5086413;28;20055;-71
2023/07/16 11:29:56;;;;;;;;;;;32.60;95.90;;;;;;5084834;28;20032;-70
2023/07/16 11:32:31;;;;;;;9.55;4.95;;;32.60;95.50;;;;;;5086005;28;19917;-71
2023/07/16 11:34:58;;;;;;;8.77;4.45;;;32.50;94.40;;;;;;5089214;28;20054;-70
2023/07/16 11:37:28;;;;;;;7.93;4.18;;;32.50;94.30;;;;;;5086013;28;20035;-70
2023/07/16 11:39:59;;;;;;;8.88;4.32;;;32.70;94.10;;;;;;5088918;28;20046;-71
2023/07/16 11:42:38;;;;;;;9.13;4.03;;;32.70;94.50;;;;;;5095597;28;20023;-71
2023/07/16 11:45:05;;;;;;;9.02;4.70;;;32.90;94.20;;;;;;5087611;28;20024;-71
2023/07/16 11:47:31;;;;;;;6.97;4.43;;;32.80;94.60;;;;;;5084605;27;20115;-70
2023/07/16 11:49:58;;;;;;;5.22;3.65;;;33.00;94.50;;;;;;5090147;28;20575;-71
2023/07/16 11:52:26;;;;;;;7.60;4.07;;;33.00;93.30;;;;;;5087021;28;20077;-71
2023/07/16 11:54:53;;;;;;;7.82;4.45;;;33.10;94.00;;;;;;5084710;28;20035;-71
2023/07/16 11:57:19;;;;;;;11.63;4.40;;;33.30;94.10;;;;;;5093548;28;20036;-71
2023/07/16 11:59:44;;;;;;;6.25;3.20;;;33.70;94.30;;;;;;5103756;28;20066;-71
2023/07/16 12:02:10;;;;;;;5.97;3.78;;;33.60;93.20;;;;;;5094634;28;20035;-71
2023/07/16 12:04:36;;;;;;;6.88;4.45;;;33.70;93.10;;;;;;5086730;28;20659;-71
2023/07/16 12:07:02;;;;;;;9.90;4.53;;;33.70;94.20;;;;;;5106474;28;20102;-71
2023/07/16 12:09:28;;;;;;;7.22;4.13;;;33.60;92.90;;;;;;5101843;28;20107;-71
2023/07/16 12:11:54;;;;;;;6.82;3.63;;;33.70;93.50;;;;;;5085154;28;20035;-71
2023/07/16 12:14:20;;;;;;;5.68;3.25;;;33.60;93.40;;;;;;5082864;28;20028;-71
2023/07/16 12:16:45;;;;;;;5.60;3.38;;;33.80;93.20;;;;;;5103283;28;20099;-71
2023/07/16 12:19:11;;;;;;;10.02;3.47;;;33.70;91.70;;;;;;5090269;28;20459;-71
2023/07/16 12:21:37;;;;;;;12.38;4.55;;;33.70;90.90;;;;;;5086724;28;20591;-71
2023/07/16 12:24:03;;;;;;;7.72;3.63;;;33.70;92.60;;;;;;5086098;28;20470;-71
2023/07/16 12:26:28;;;;;;;6.35;3.13;;;34.10;91.50;;;;;;5092423;28;20126;-71
2023/07/16 12:28:55;;;;;;;6.28;3.20;;;34.00;91.00;;;;;;5095980;28;20038;-72
2023/07/16 12:31:21;;;;;;;5.63;3.30;;;33.90;91.00;;;;;;5088731;28;20510;-72
2023/07/16 12:33:47;;;;;;;5.78;3.10;;;34.00;92.10;;;;;;5086860;28;20603;-72
2023/07/16 12:36:13;;;;;;;7.82;3.50;;;34.10;90.50;;;;;;5084080;28;20474;-71
2023/07/16 12:38:39;;;;;;;6.07;2.90;;;34.10;91.20;;;;;;5086705;28;20061;-71